createdAt,value
2022-10-08T00:01:16.911Z,13.00
2022-10-08T00:03:47.870Z,13.00
2022-10-08T00:06:21.616Z,12.90
2022-10-08T00:08:55.515Z,13.00
2022-10-08T00:11:29.801Z,13.10
2022-10-08T00:13:56.988Z,13.30
2022-10-08T00:16:34.452Z,13.20
2022-10-08T00:19:05.867Z,13.00
2022-10-08T00:21:36.429Z,12.90
2022-10-08T00:24:05.920Z,12.80
2022-10-08T00:26:39.842Z,12.60
2022-10-08T00:29:13.440Z,12.60
2022-10-08T00:31:43.582Z,12.60
2022-10-08T00:34:16.551Z,12.60
2022-10-08T00:36:43.221Z,12.60
2022-10-08T00:39:14.960Z,12.50
2022-10-08T00:41:44.138Z,12.40
2022-10-08T00:45:12.780Z,12.50
2022-10-08T00:47:53.313Z,12.50
2022-10-08T00:50:30.214Z,12.50
2022-10-08T00:53:07.336Z,12.40
2022-10-08T00:55:42.482Z,12.30
2022-10-08T00:58:19.456Z,12.10
2022-10-08T01:00:47.500Z,12.10
2022-10-08T01:03:14.316Z,12.00
2022-10-08T01:06:29.837Z,12.10
2022-10-08T01:09:22.579Z,12.10
2022-10-08T01:12:29.996Z,12.10
2022-10-08T01:15:13.684Z,12.00
2022-10-08T01:18:16.439Z,12.00
2022-10-08T01:27:30.441Z,12.00
2022-10-08T01:30:04.960Z,11.90
2022-10-08T01:33:02.993Z,11.80
2022-10-08T01:35:33.931Z,11.60
2022-10-08T01:38:07.193Z,11.50
2022-10-08T01:40:38.455Z,11.50
2022-10-08T01:43:10.306Z,11.60
2022-10-08T01:45:43.263Z,11.60
2022-10-08T01:48:21.546Z,11.60
2022-10-08T01:51:14.130Z,11.50
2022-10-08T01:53:45.839Z,11.50
2022-10-08T01:56:19.120Z,11.50
2022-10-08T01:59:05.352Z,11.60
2022-10-08T02:02:14.590Z,11.60
2022-10-08T02:04:41.787Z,11.60
2022-10-08T02:07:20.107Z,11.70
2022-10-08T02:09:52.123Z,11.80
2022-10-08T02:12:22.208Z,11.60
2022-10-08T02:14:54.017Z,11.50
2022-10-08T02:18:40.038Z,11.50
2022-10-08T02:21:21.502Z,11.40
2022-10-08T02:24:09.571Z,11.40
2022-10-08T02:26:46.515Z,11.30
2022-10-08T02:29:43.020Z,11.20
2022-10-08T02:32:37.863Z,11.20
2022-10-08T02:36:16.662Z,11.30
2022-10-08T02:38:58.692Z,11.30
2022-10-08T02:41:43.736Z,11.20
2022-10-08T02:44:19.611Z,11.40
2022-10-08T02:46:51.831Z,11.50
2022-10-08T02:49:27.350Z,11.50
2022-10-08T02:51:57.852Z,11.60
2022-10-08T02:54:24.751Z,11.70
2022-10-08T02:57:25.400Z,11.70
2022-10-08T02:59:52.457Z,11.80
2022-10-08T03:02:41.197Z,11.90
2022-10-08T03:05:18.439Z,12.00
2022-10-08T03:07:48.135Z,12.10
2022-10-08T03:10:14.643Z,12.10
2022-10-08T03:12:41.484Z,12.00
2022-10-08T03:15:10.945Z,12.00
2022-10-08T03:17:43.966Z,12.00
2022-10-08T03:20:12.068Z,12.00
2022-10-08T03:22:39.696Z,12.10
2022-10-08T03:25:06.473Z,12.10
2022-10-08T03:27:34.453Z,12.10
2022-10-08T03:30:01.533Z,12.10
2022-10-08T03:32:28.089Z,12.20
2022-10-08T03:34:54.574Z,12.20
2022-10-08T03:37:21.089Z,12.30
2022-10-08T03:39:47.572Z,12.20
2022-10-08T03:42:14.072Z,12.20
2022-10-08T03:44:40.568Z,12.20
2022-10-08T03:47:07.055Z,12.30
2022-10-08T03:49:33.537Z,12.20
2022-10-08T03:52:00.019Z,12.20
2022-10-08T03:54:26.535Z,12.10
2022-10-08T03:56:53.028Z,12.10
2022-10-08T03:59:19.619Z,12.10
2022-10-08T04:01:46.157Z,12.10
2022-10-08T04:04:12.657Z,12.20
2022-10-08T04:06:39.137Z,12.20
2022-10-08T04:09:05.620Z,12.30
2022-10-08T04:11:32.070Z,12.30
2022-10-08T04:14:00.341Z,12.20
2022-10-08T04:16:26.887Z,12.20
2022-10-08T04:18:53.378Z,12.20
2022-10-08T04:21:20.488Z,12.30
2022-10-08T04:23:49.363Z,12.20
2022-10-08T04:26:16.355Z,12.20
2022-10-08T04:28:44.479Z,12.10
2022-10-08T04:31:20.929Z,12.00
2022-10-08T04:33:47.622Z,11.90
2022-10-08T04:36:18.384Z,12.00
2022-10-08T04:38:45.930Z,12.00
2022-10-08T04:41:26.637Z,12.00
2022-10-08T04:43:58.916Z,12.00
2022-10-08T04:46:25.645Z,12.00
2022-10-08T04:48:55.035Z,12.00
2022-10-08T04:51:24.641Z,12.00
2022-10-08T04:53:54.263Z,11.90
2022-10-08T04:56:28.884Z,11.90
2022-10-08T04:58:57.438Z,12.00
2022-10-08T05:01:27.240Z,12.10
2022-10-08T05:03:56.133Z,12.20
2022-10-08T05:06:29.348Z,12.20
2022-10-08T05:08:59.091Z,12.10
2022-10-08T05:11:26.692Z,12.10
2022-10-08T05:13:55.228Z,12.10
2022-10-08T05:16:22.765Z,12.10
2022-10-08T05:18:52.589Z,12.20
2022-10-08T05:21:23.651Z,12.20
2022-10-08T05:24:06.477Z,12.30
2022-10-08T05:29:33.675Z,12.30
2022-10-08T05:32:00.163Z,12.20
2022-10-08T05:34:26.656Z,12.20
2022-10-08T05:36:53.171Z,12.30
2022-10-08T05:39:19.723Z,12.30
2022-10-08T05:41:46.219Z,12.30
2022-10-08T05:44:12.853Z,12.30
2022-10-08T05:46:39.692Z,12.40
2022-10-08T05:49:16.335Z,12.30
2022-10-08T05:51:42.825Z,12.30
2022-10-08T05:54:09.277Z,12.40
2022-10-08T05:56:35.760Z,12.40
2022-10-08T05:59:02.242Z,12.40
2022-10-08T06:01:32.188Z,12.40
2022-10-08T06:04:08.088Z,12.40
2022-10-08T06:06:37.322Z,12.40
2022-10-08T06:09:05.027Z,12.40
2022-10-08T06:11:35.497Z,12.40
2022-10-08T06:14:02.427Z,12.50
2022-10-08T06:16:29.799Z,12.40
2022-10-08T06:18:56.377Z,12.50
2022-10-08T06:21:26.072Z,12.50
2022-10-08T06:23:56.241Z,12.60
2022-10-08T06:26:29.588Z,12.60
2022-10-08T06:28:59.501Z,12.70
2022-10-08T06:31:26.313Z,12.70
2022-10-08T06:33:57.827Z,12.80
2022-10-08T06:36:27.371Z,12.80
2022-10-08T06:39:04.506Z,12.80
2022-10-08T06:41:33.989Z,12.80
2022-10-08T06:44:06.283Z,12.90
2022-10-08T06:46:34.147Z,12.90
2022-10-08T06:49:01.616Z,13.10
2022-10-08T06:51:28.901Z,13.20
2022-10-08T06:54:01.486Z,13.30
2022-10-08T06:56:32.971Z,13.40
2022-10-08T06:58:59.450Z,13.50
2022-10-08T07:01:32.937Z,13.60
2022-10-08T07:04:01.683Z,13.70
2022-10-08T07:06:28.547Z,13.70
2022-10-08T07:08:57.904Z,13.80
2022-10-08T07:11:25.451Z,13.90
2022-10-08T07:13:53.881Z,14.00
2022-10-08T07:16:23.879Z,14.20
2022-10-08T07:18:52.938Z,14.50
2022-10-08T07:21:21.607Z,14.60
2022-10-08T07:23:49.010Z,14.90
2022-10-08T07:26:22.192Z,14.90
2022-10-08T07:29:18.892Z,15.10
2022-10-08T07:31:45.482Z,15.30
2022-10-08T07:34:13.179Z,15.30
2022-10-08T07:36:40.187Z,15.40
2022-10-08T07:39:21.125Z,15.40
2022-10-08T07:41:49.029Z,15.50
2022-10-08T07:44:16.864Z,15.60
2022-10-08T07:46:49.655Z,15.80
2022-10-08T07:49:18.188Z,16.00
2022-10-08T07:51:45.455Z,15.90
2022-10-08T07:54:16.887Z,16.00
2022-10-08T07:56:43.819Z,16.10
2022-10-08T07:59:14.221Z,16.30
2022-10-08T08:01:41.389Z,16.50
2022-10-08T08:04:09.997Z,16.80
2022-10-08T08:06:43.640Z,16.70
2022-10-08T08:09:11.262Z,16.80
2022-10-08T08:11:39.258Z,17.10
2022-10-08T08:14:05.895Z,17.30
2022-10-08T08:16:32.653Z,17.30
2022-10-08T08:19:01.415Z,17.60
2022-10-08T08:21:32.305Z,17.80
2022-10-08T08:24:05.729Z,17.90
2022-10-08T08:26:36.033Z,18.20
2022-10-08T08:29:15.880Z,18.30
2022-10-08T08:31:46.057Z,18.20
2022-10-08T08:34:23.518Z,18.30
2022-10-08T08:36:53.058Z,18.20
2022-10-08T08:39:27.774Z,18.10
2022-10-08T08:42:58.390Z,18.00
2022-10-08T08:45:46.278Z,18.00
2022-10-08T08:48:32.388Z,18.30
2022-10-08T08:50:59.781Z,18.80
2022-10-08T08:53:27.296Z,18.90
2022-10-08T08:55:58.255Z,18.90
2022-10-08T08:59:33.172Z,18.90
2022-10-08T09:02:12.683Z,18.80
2022-10-08T09:04:50.469Z,19.00
2022-10-08T09:07:24.232Z,19.30
2022-10-08T09:09:55.144Z,19.30
2022-10-08T09:12:38.740Z,19.20
2022-10-08T09:15:37.490Z,19.30
2022-10-08T09:18:04.736Z,19.40
2022-10-08T09:20:31.383Z,19.60
2022-10-08T09:22:59.631Z,19.50
2022-10-08T09:25:32.234Z,19.60
2022-10-08T09:28:03.417Z,19.50
2022-10-08T09:30:44.029Z,19.60
2022-10-08T09:33:31.598Z,19.40
2022-10-08T09:35:58.705Z,19.10
2022-10-08T09:38:37.835Z,19.10
2022-10-08T09:41:19.292Z,19.10
2022-10-08T09:44:19.775Z,19.40
2022-10-08T09:46:47.745Z,19.50
2022-10-08T09:49:37.605Z,19.50
2022-10-08T09:52:26.380Z,19.70
2022-10-08T09:55:31.397Z,19.80
2022-10-08T09:58:08.337Z,19.90
2022-10-08T10:00:38.691Z,20.30
2022-10-08T10:03:17.473Z,20.40
2022-10-08T10:05:50.956Z,20.60
2022-10-08T10:10:01.180Z,20.70
2022-10-08T10:12:41.570Z,21.10
2022-10-08T10:15:33.736Z,20.90
2022-10-08T10:18:15.311Z,20.90
2022-10-08T10:20:50.738Z,21.00
2022-10-08T10:24:33.499Z,20.90
2022-10-08T10:27:11.212Z,20.60
2022-10-08T10:30:23.083Z,20.80
2022-10-08T10:33:59.677Z,20.60
2022-10-08T10:36:33.646Z,20.70
2022-10-08T10:40:46.464Z,20.80
2022-10-08T10:43:52.918Z,21.00
2022-10-08T10:47:03.311Z,20.90
2022-10-08T10:49:38.132Z,21.00
2022-10-08T10:56:22.031Z,21.30
2022-10-08T10:59:44.543Z,21.40
2022-10-08T11:02:44.411Z,21.70
2022-10-08T11:05:26.261Z,21.70
2022-10-08T11:09:48.871Z,21.90
2022-10-08T11:12:42.936Z,21.80
2022-10-08T11:15:44.226Z,21.60
2022-10-08T11:18:26.976Z,21.80
2022-10-08T11:23:04.011Z,21.90
2022-10-08T11:26:19.060Z,21.40
2022-10-08T11:32:00.637Z,21.40
2022-10-08T11:34:34.795Z,21.30
2022-10-08T11:38:10.046Z,21.50
2022-10-08T11:40:50.380Z,21.70
2022-10-08T11:44:03.709Z,21.80
2022-10-08T11:46:35.648Z,21.90
2022-10-08T11:50:16.359Z,21.70
2022-10-08T11:52:42.878Z,21.70
2022-10-08T11:55:32.382Z,21.80
2022-10-08T11:58:08.744Z,21.80
2022-10-08T12:00:47.516Z,22.10
2022-10-08T12:03:36.788Z,22.20
2022-10-08T12:06:27.612Z,22.20
2022-10-08T12:08:57.978Z,22.20
2022-10-08T12:12:25.019Z,22.10
2022-10-08T12:14:51.517Z,22.00
2022-10-08T12:17:18.216Z,22.10
2022-10-08T12:20:02.311Z,22.20
2022-10-08T12:22:42.648Z,22.50
2022-10-08T12:25:38.104Z,22.40
2022-10-08T12:30:52.383Z,22.40
2022-10-08T12:33:19.848Z,22.40
2022-10-08T12:36:23.557Z,22.50
2022-10-08T12:39:07.284Z,22.50
2022-10-08T12:42:24.496Z,22.50
2022-10-08T12:45:25.578Z,22.30
2022-10-08T12:49:57.949Z,22.30
2022-10-08T12:52:25.494Z,22.50
2022-10-08T12:54:57.285Z,22.50
2022-10-08T12:57:37.229Z,22.40
2022-10-08T13:00:35.489Z,22.40
2022-10-08T13:03:13.823Z,22.40
2022-10-08T13:05:42.754Z,22.10
2022-10-08T13:08:37.973Z,22.10
2022-10-08T13:11:09.910Z,22.10
2022-10-08T13:13:48.681Z,22.30
2022-10-08T13:16:26.418Z,22.20
2022-10-08T13:18:57.671Z,22.10
2022-10-08T13:21:38.131Z,22.00
2022-10-08T13:25:29.894Z,22.20
2022-10-08T13:28:15.345Z,22.40
2022-10-08T13:30:46.239Z,22.40
2022-10-08T13:33:19.197Z,22.50
2022-10-08T13:35:59.955Z,22.60
2022-10-08T13:38:35.353Z,22.40
2022-10-08T13:41:05.602Z,22.40
2022-10-08T13:43:33.720Z,22.20
2022-10-08T13:46:00.948Z,22.20
2022-10-08T13:48:27.492Z,22.10
2022-10-08T13:50:54.138Z,22.00
2022-10-08T13:53:25.236Z,21.90
2022-10-08T13:55:51.899Z,21.60
2022-10-08T13:58:19.905Z,21.50
2022-10-08T14:00:47.822Z,21.50
2022-10-08T14:03:14.822Z,21.40
2022-10-08T14:05:45.530Z,21.30
2022-10-08T14:08:26.460Z,21.10
2022-10-08T14:10:57.108Z,21.30
2022-10-08T14:13:24.481Z,21.10
2022-10-08T14:15:51.003Z,21.10
2022-10-08T14:18:17.501Z,21.20
2022-10-08T14:20:44.089Z,21.10
2022-10-08T14:23:13.451Z,21.10
2022-10-08T14:25:39.946Z,21.00
2022-10-08T14:28:06.626Z,21.00
2022-10-08T14:30:33.183Z,21.00
2022-10-08T14:32:59.628Z,20.90
2022-10-08T14:35:26.115Z,20.90
2022-10-08T14:37:52.607Z,20.80
2022-10-08T14:40:21.650Z,20.70
2022-10-08T14:42:49.216Z,20.80
2022-10-08T14:45:16.027Z,20.70
2022-10-08T14:47:42.503Z,20.60
2022-10-08T14:50:09.501Z,20.60
2022-10-08T14:52:40.390Z,20.50
2022-10-08T14:55:10.016Z,20.40
2022-10-08T14:57:36.497Z,20.50
2022-10-08T15:00:04.177Z,20.50
2022-10-08T15:02:31.003Z,20.50
2022-10-08T15:04:57.481Z,20.50
2022-10-08T15:07:24.059Z,20.50
2022-10-08T15:09:50.512Z,20.50
2022-10-08T15:12:17.004Z,20.50
2022-10-08T15:14:43.534Z,20.50
2022-10-08T15:17:09.994Z,20.40
2022-10-08T15:19:36.515Z,20.30
2022-10-08T15:22:03.017Z,20.30
2022-10-08T15:24:29.593Z,20.30
2022-10-08T15:26:56.088Z,20.30
2022-10-08T15:29:22.544Z,20.30
2022-10-08T15:31:50.474Z,20.10
2022-10-08T15:34:19.846Z,20.00
2022-10-08T15:36:46.788Z,20.00
2022-10-08T15:39:18.540Z,19.90
2022-10-08T15:41:51.853Z,19.80
2022-10-08T15:44:25.596Z,19.70
2022-10-08T15:47:06.980Z,19.60
2022-10-08T15:49:42.240Z,19.40
2022-10-08T15:52:13.420Z,19.20
2022-10-08T15:54:41.299Z,19.10
2022-10-08T15:57:10.542Z,18.90
2022-10-08T15:59:37.507Z,18.80
2022-10-08T16:02:04.611Z,18.70
2022-10-08T16:04:31.512Z,18.60
2022-10-08T16:06:57.975Z,18.50
2022-10-08T16:09:24.776Z,18.40
2022-10-08T16:11:51.588Z,18.40
2022-10-08T16:14:22.338Z,18.30
2022-10-08T16:16:49.842Z,18.20
2022-10-08T16:19:25.231Z,18.10
2022-10-08T16:21:55.455Z,18.10
2022-10-08T16:24:23.057Z,18.00
2022-10-08T16:26:50.140Z,18.00
2022-10-08T16:29:18.265Z,18.10
2022-10-08T16:31:46.778Z,18.00
2022-10-08T16:34:22.982Z,17.90
2022-10-08T16:36:50.524Z,17.80
2022-10-08T16:39:21.312Z,17.80
2022-10-08T16:41:48.814Z,17.70
2022-10-08T16:44:19.025Z,17.70
2022-10-08T16:46:49.534Z,17.60
2022-10-08T16:49:26.050Z,17.50
2022-10-08T16:52:11.182Z,17.40
2022-10-08T16:54:37.954Z,17.40
2022-10-08T16:57:04.536Z,17.30
2022-10-08T16:59:31.191Z,17.20
2022-10-08T17:01:59.408Z,17.10
2022-10-08T17:04:28.436Z,17.00
2022-10-08T17:06:55.344Z,16.90
2022-10-08T17:09:21.856Z,16.90
2022-10-08T17:11:48.487Z,16.80
2022-10-08T17:14:15.163Z,16.70
2022-10-08T17:16:42.600Z,16.70
2022-10-08T17:19:09.118Z,16.70
2022-10-08T17:21:36.299Z,16.80
2022-10-08T17:24:03.189Z,16.70
2022-10-08T17:26:30.907Z,16.80
2022-10-08T17:29:03.765Z,17.00
2022-10-08T17:31:31.141Z,16.90
2022-10-08T17:33:59.120Z,16.90
2022-10-08T17:36:29.647Z,16.80
2022-10-08T17:38:59.862Z,16.80
2022-10-08T17:41:32.950Z,16.70
2022-10-08T17:44:02.725Z,16.70
2022-10-08T17:46:36.909Z,16.70
2022-10-08T17:49:03.947Z,16.70
2022-10-08T17:51:30.905Z,16.70
2022-10-08T17:54:04.236Z,16.70
2022-10-08T17:56:31.687Z,16.70
2022-10-08T17:58:59.081Z,16.60
2022-10-08T18:01:34.390Z,16.60
2022-10-08T18:04:04.391Z,16.60
2022-10-08T18:06:33.310Z,16.50
2022-10-08T18:09:04.065Z,16.50
2022-10-08T18:11:36.040Z,16.50
2022-10-08T18:14:04.599Z,16.50
2022-10-08T18:16:31.399Z,16.60
2022-10-08T18:18:58.161Z,16.60
2022-10-08T18:21:24.922Z,16.50
2022-10-08T18:23:51.968Z,16.40
2022-10-08T18:26:29.816Z,16.40
2022-10-08T18:28:59.602Z,16.40
2022-10-08T18:31:32.092Z,16.40
2022-10-08T18:34:06.207Z,16.30
2022-10-08T18:36:36.335Z,16.20
2022-10-08T18:39:07.118Z,16.20
2022-10-08T18:41:38.088Z,16.20
2022-10-08T18:44:06.078Z,16.30
2022-10-08T18:46:35.126Z,16.30
2022-10-08T18:49:02.415Z,16.20
2022-10-08T18:51:30.246Z,16.20
2022-10-08T18:53:58.733Z,16.00
2022-10-08T18:56:33.571Z,15.90
2022-10-08T18:59:03.201Z,15.80
2022-10-08T19:01:36.490Z,15.70
2022-10-08T19:04:06.804Z,15.70
2022-10-08T19:06:39.266Z,15.60
2022-10-08T19:09:06.603Z,15.50
2022-10-08T19:11:44.467Z,15.50
2022-10-08T19:14:14.934Z,15.40
2022-10-08T19:16:42.375Z,15.30
2022-10-08T19:19:24.439Z,15.20
2022-10-08T19:21:53.368Z,15.20
2022-10-08T19:24:24.686Z,15.10
2022-10-08T19:26:52.681Z,15.10
2022-10-08T19:29:23.238Z,15.00
2022-10-08T19:31:50.801Z,14.80
2022-10-08T19:34:26.106Z,14.80
2022-10-08T19:36:52.889Z,14.70
2022-10-08T19:39:26.671Z,14.60
2022-10-08T19:41:53.517Z,14.40
2022-10-08T19:44:20.839Z,14.40
2022-10-08T19:46:47.601Z,14.30
2022-10-08T19:49:14.918Z,14.40
2022-10-08T19:51:41.564Z,14.40
2022-10-08T19:54:08.127Z,14.40
2022-10-08T19:56:35.211Z,14.40
2022-10-08T19:59:01.819Z,14.30
2022-10-08T20:01:35.438Z,14.40
2022-10-08T20:04:04.272Z,14.30
2022-10-08T20:06:33.805Z,14.30
2022-10-08T20:09:02.620Z,14.30
2022-10-08T20:11:31.218Z,14.20
2022-10-08T20:13:59.354Z,14.30
2022-10-08T20:16:38.884Z,14.40
2022-10-08T20:19:19.375Z,14.50
2022-10-08T20:21:48.870Z,14.60
2022-10-08T20:24:17.730Z,14.60
2022-10-08T20:26:45.087Z,14.60
2022-10-08T20:29:19.474Z,14.60
2022-10-08T20:31:53.980Z,14.70
2022-10-08T20:34:27.930Z,14.70
2022-10-08T20:36:54.476Z,14.70
2022-10-08T20:39:22.228Z,14.80
2022-10-08T20:41:49.253Z,14.80
2022-10-08T20:44:16.095Z,14.70
2022-10-08T20:46:42.896Z,14.70
2022-10-08T20:49:11.995Z,14.80
2022-10-08T20:51:41.349Z,14.70
2022-10-08T20:54:12.119Z,14.70
2022-10-08T20:56:40.685Z,14.60
2022-10-08T20:59:09.600Z,14.50
2022-10-08T21:01:38.526Z,14.50
2022-10-08T21:04:06.937Z,14.80
2022-10-08T21:06:46.243Z,14.80
2022-10-08T21:09:15.774Z,14.80
2022-10-08T21:11:45.126Z,14.90
2022-10-08T21:14:16.934Z,14.90
2022-10-08T21:16:43.619Z,15.00
2022-10-08T21:19:18.199Z,15.00
2022-10-08T21:21:44.761Z,15.00
2022-10-08T21:24:11.297Z,15.10
2022-10-08T21:26:40.664Z,15.10
2022-10-08T21:29:11.212Z,15.00
2022-10-08T21:31:40.013Z,15.00
2022-10-08T21:34:07.311Z,15.00
2022-10-08T21:36:38.576Z,15.00
2022-10-08T21:39:07.877Z,14.90
2022-10-08T21:41:36.972Z,14.80
2022-10-08T21:44:06.825Z,14.80
2022-10-08T21:46:37.343Z,14.80
2022-10-08T21:49:12.812Z,14.90
2022-10-08T21:51:39.293Z,14.90
2022-10-08T21:54:06.894Z,15.10
2022-10-08T21:56:37.392Z,15.10
2022-10-08T21:59:06.610Z,15.20
2022-10-08T22:01:37.505Z,15.40
2022-10-08T22:04:21.437Z,15.50
2022-10-08T22:06:53.951Z,15.50
2022-10-08T22:09:31.560Z,15.40
2022-10-08T22:11:58.871Z,15.20
2022-10-08T22:14:25.688Z,15.10
2022-10-08T22:16:52.187Z,15.10
2022-10-08T22:19:18.781Z,15.10
2022-10-08T22:21:45.733Z,15.10
2022-10-08T22:24:13.018Z,15.00
2022-10-08T22:26:43.848Z,15.20
2022-10-08T22:29:10.933Z,15.40
2022-10-08T22:31:38.324Z,15.50
2022-10-08T22:34:05.287Z,15.50
2022-10-08T22:36:37.678Z,15.40
2022-10-08T22:39:04.180Z,15.40
2022-10-08T22:41:32.477Z,15.40
2022-10-08T22:43:59.938Z,15.20
2022-10-08T22:46:36.195Z,15.20
2022-10-08T22:49:07.187Z,15.20
2022-10-08T22:51:34.135Z,15.20
2022-10-08T22:54:00.650Z,15.20
2022-10-08T22:56:30.096Z,15.20
2022-10-08T22:58:58.951Z,15.30
2022-10-08T23:01:27.805Z,15.40
2022-10-08T23:03:54.766Z,15.30
2022-10-08T23:06:34.873Z,15.20
2022-10-08T23:09:07.424Z,15.20
2022-10-08T23:11:34.286Z,15.30
2022-10-08T23:14:01.608Z,15.30
2022-10-08T23:16:30.911Z,15.40
2022-10-08T23:19:05.028Z,15.50
2022-10-08T23:21:31.768Z,15.50
2022-10-08T23:23:58.862Z,15.50
2022-10-08T23:26:26.641Z,15.40
2022-10-08T23:28:56.971Z,15.40
2022-10-08T23:31:33.036Z,15.30
2022-10-08T23:34:01.171Z,15.40
2022-10-08T23:36:35.660Z,15.40
2022-10-08T23:39:02.944Z,15.40
2022-10-08T23:41:29.658Z,15.50
2022-10-08T23:43:58.143Z,15.40
2022-10-08T23:46:28.343Z,15.50
2022-10-08T23:48:55.632Z,15.50
2022-10-08T23:51:23.851Z,15.60
2022-10-08T23:53:51.826Z,15.50
2022-10-08T23:56:19.286Z,15.40
2022-10-08T23:58:46.078Z,15.50
